.
WxDataArchive / Data Records for 2012-06-27
2012-06-26 June 2012 2012-06-28

Data Records for Wednesday, 27 June 2012

Time	Temp	Chill	HIndex	Humid	Dewpt	 Wind 	HiWind	WindDir	Rain 	Barom 
-----	----	-----	------	-----	-----	------	------	-------	-----	----- 
00:00	63.5	63.5	63.5	58	48.5	0	0	---	0.00	29.957 
00:05	63.4	63.4	63.4	58	48.4	0	0	---	0.00	29.957 
00:10	63.1	63.1	63.1	60	49.0	0	0	---	0.00	29.957 
00:15	62.7	62.7	62.7	60	48.6	0	0	---	0.00	29.957 
00:20	62.6	62.6	62.6	60	48.5	0	0	---	0.00	29.957 
00:25	62.4	62.4	62.4	60	48.3	0	0	---	0.00	29.957 
00:30	62.4	62.4	62.4	60	48.3	0	0	---	0.00	29.958 
00:35	62.3	62.3	62.3	61	48.7	0	0	---	0.00	29.958 
00:40	62.0	62.0	62.0	62	48.8	0	0	---	0.00	29.958 
00:45	61.6	61.6	61.6	62	48.4	0	0	---	0.00	29.957 
00:50	61.5	61.5	61.5	63	48.8	0	0	---	0.00	29.957 
00:55	61.3	61.3	61.3	63	48.6	0	0	---	0.00	29.957 
01:00	61.0	61.0	61.0	63	48.3	0	0	---	0.00	29.951 
01:05	60.9	60.9	60.9	64	48.6	0	0	---	0.00	29.951 
01:10	60.7	60.7	60.7	65	48.9	0	0	---	0.00	29.951 
01:15	60.4	60.4	60.4	65	48.6	0	0	---	0.00	29.955 
01:20	60.2	60.2	60.2	65	48.4	0	0	---	0.00	29.955 
01:25	60.1	60.1	60.1	65	48.3	0	0	---	0.00	29.955 
01:30	59.9	59.9	59.9	66	48.5	0	0	---	0.00	29.951 
01:35	59.8	59.8	59.8	66	48.4	0	0	---	0.00	29.951 
01:40	59.8	59.8	59.8	67	48.8	0	0	---	0.00	29.951 
01:45	59.6	59.6	59.6	67	48.6	0	0	---	0.00	29.950 
01:50	59.5	59.5	59.5	68	48.9	0	0	---	0.00	29.950 
01:55	59.3	59.3	59.3	68	48.7	0	0	---	0.00	29.950 
02:00	59.2	59.2	59.2	68	48.6	0	0	---	0.00	29.953 
02:05	59.0	59.0	59.0	69	48.8	0	0	---	0.00	29.953 
02:10	58.9	58.9	58.9	69	48.7	0	0	---	0.00	29.953 
02:15	58.9	58.9	58.9	69	48.7	0	0	---	0.00	29.951 
02:20	58.7	58.7	58.7	70	48.9	0	0	---	0.00	29.951 
02:25	58.6	58.6	58.6	71	49.2	0	0	---	0.00	29.951 
02:30	58.4	58.4	58.4	71	49.0	0	0	---	0.00	29.955 
02:35	58.4	58.4	58.4	71	49.0	0	0	---	0.00	29.955 
02:40	58.3	58.3	58.3	72	49.3	0	0	---	0.00	29.955 
02:45	58.1	58.1	58.1	71	48.7	0	0	---	0.00	29.953 
02:50	58.1	58.1	58.1	72	49.1	0	0	---	0.00	29.953 
02:55	58.0	58.0	58.0	72	49.0	0	0	---	0.00	29.953 
03:00	58.0	58.0	58.0	72	49.0	0	0	---	0.00	29.953 
03:05	57.8	57.8	57.8	72	48.8	0	0	---	0.00	29.953 
03:10	57.8	57.8	57.8	73	49.2	0	0	---	0.00	29.953 
03:15	57.6	57.6	57.6	73	49.0	0	0	---	0.00	29.947 
03:20	57.6	57.6	57.6	73	49.0	0	0	---	0.00	29.947 
03:25	57.6	57.6	57.6	73	49.0	0	0	---	0.00	29.947 
03:30	57.5	57.5	57.5	73	48.9	0	0	---	0.00	29.946 
03:35	57.5	57.5	57.5	74	49.3	0	0	---	0.00	29.946 
03:40	57.2	57.2	57.2	74	49.0	0	0	---	0.00	29.946 
03:45	57.2	57.2	57.2	74	49.0	0	0	---	0.00	29.949 
03:50	57.0	57.0	57.0	75	49.2	0	0	---	0.00	29.949 
03:55	56.9	56.9	56.9	75	49.1	0	0	---	0.00	29.949 
04:00	56.7	56.7	56.7	75	48.9	0	0	---	0.00	29.944 
04:05	56.6	56.6	56.6	75	48.8	0	0	---	0.00	29.944 
04:10	56.5	56.5	56.5	76	49.0	0	0	---	0.00	29.944 
04:15	56.5	56.5	56.5	76	49.0	0	0	---	0.00	29.952 
04:20	56.3	56.3	56.3	77	49.2	0	0	---	0.00	29.952 
04:25	56.3	56.3	56.3	77	49.2	0	0	---	0.00	29.952 
04:30	56.2	56.2	56.2	78	49.4	0	0	---	0.00	29.955 
04:35	56.0	56.0	56.0	79	49.6	0	0	---	0.00	29.955 
04:40	55.9	55.9	55.9	79	49.5	0	0	---	0.00	29.955 
04:45	55.9	55.9	55.9	80	49.8	0	0	---	0.00	29.948 
04:50	55.7	55.7	55.7	81	50.0	0	0	---	0.00	29.948 
04:55	55.6	55.6	55.6	81	49.9	0	0	---	0.00	29.948 
05:00	55.6	55.6	55.6	81	49.9	0	0	---	0.00	29.945 
05:05	55.6	55.6	55.6	81	49.9	0	0	---	0.00	29.945 
05:10	55.4	55.4	55.4	82	50.0	0	0	---	0.00	29.945 
05:15	55.3	55.3	55.3	82	49.9	0	0	---	0.00	29.947 
05:20	55.3	55.3	55.3	82	49.9	0	0	---	0.00	29.947 
05:25	55.1	55.1	55.1	82	49.7	0	0	---	0.00	29.947 
05:30	55.1	55.1	55.1	82	49.7	0	0	---	0.00	29.947 
05:35	55.0	55.0	55.0	83	49.9	0	0	---	0.00	29.947 
05:40	55.0	55.0	55.0	83	49.9	0	0	---	0.00	29.947 
05:45	55.0	55.0	55.0	83	49.9	0	0	---	0.00	29.958 
05:50	54.8	54.8	54.8	83	49.7	0	0	---	0.00	29.958 
05:55	54.8	54.8	54.8	83	49.7	0	0	---	0.00	29.958 
06:00	54.8	54.8	54.8	83	49.7	0	0	---	0.00	29.962 
06:05	54.7	54.7	54.7	84	50.0	0	0	---	0.00	29.962 
06:10	54.7	54.7	54.7	84	50.0	0	0	---	0.00	29.962 
06:15	54.5	54.5	54.5	84	49.8	0	0	---	0.00	29.961 
06:20	54.5	54.5	54.5	84	49.8	0	0	---	0.00	29.961 
06:25	54.4	54.4	54.4	84	49.7	0	0	---	0.00	29.961 
06:30	54.4	54.4	54.4	84	49.7	0	0	---	0.00	29.962 
06:35	54.4	54.4	54.4	84	49.7	0	0	---	0.00	29.962 
06:40	54.5	54.5	54.5	85	50.1	0	0	---	0.00	29.962 
06:45	54.5	54.5	54.5	85	50.1	0	0	---	0.00	29.962 
06:50	54.7	54.7	54.7	85	50.3	0	0	---	0.00	29.962 
06:55	54.8	54.8	54.8	85	50.4	0	0	---	0.00	29.962 
07:00	55.3	55.3	55.3	85	50.9	0	0	---	0.00	29.976 
07:05	55.7	55.7	55.7	84	50.9	0	0	---	0.00	29.976 
07:10	56.2	56.2	56.2	83	51.1	0	0	---	0.00	29.976 
07:15	56.5	56.5	56.5	82	51.1	0	0	---	0.00	29.977 
07:20	57.0	57.0	57.0	81	51.2	0	0	---	0.00	29.977 
07:25	58.0	58.0	58.0	79	51.5	0	0	---	0.00	29.977 
07:30	59.0	59.0	59.0	75	51.1	0	1	90	0.00	29.981 
07:35	60.2	60.2	60.2	71	50.8	0	1	90	0.00	29.981 
07:40	61.6	61.6	61.6	65	49.7	0	1	90	0.00	29.981 
07:45	63.1	63.1	63.1	61	49.4	0	2	90	0.00	29.985 
07:50	64.2	64.2	64.2	58	49.1	0	2	90	0.00	29.985 
07:55	65.3	65.3	65.3	55	48.7	0	2	90	0.00	29.985 
08:00	66.3	66.3	66.3	53	48.6	0	2	90	0.00	29.986 
08:05	67.3	67.3	67.3	51	48.5	0	2	90	0.00	29.986 
08:10	67.9	67.9	67.9	50	48.6	0	2	90	0.00	29.986 
08:15	68.8	68.8	68.8	49	48.8	0	2	90	0.00	29.994 
08:20	69.4	69.4	69.4	46	47.7	0	2	90	0.00	29.994 
08:25	70.1	70.1	70.1	44	47.2	1	2	90	0.00	29.994 
08:30	70.8	70.8	70.8	42	46.6	1	4	90	0.00	30.000 
08:35	71.1	71.1	71.1	41	46.2	1	5	248	0.00	30.000 
08:40	71.6	71.6	71.6	43	47.9	0	1	270	0.00	30.000 
08:45	72.1	72.1	72.1	43	48.4	0	2	270	0.00	30.010 
08:50	72.7	72.7	72.7	39	46.3	1	3	270	0.00	30.010 
08:55	72.8	72.8	72.8	38	45.7	2	5	270	0.00	30.010 
09:00	72.8	72.8	72.8	38	45.7	2	5	270	0.00	30.014 
09:05	73.2	73.2	73.2	39	46.7	1	3	270	0.00	30.014 
09:10	73.5	73.5	73.5	38	46.3	1	3	270	0.00	30.014 
09:15	73.9	73.9	73.9	38	46.7	1	3	270	0.00	30.019 
09:20	74.6	74.6	74.6	38	47.3	0	2	270	0.00	30.019 
09:25	75.4	75.4	77.5	37	47.3	1	3	270	0.00	30.019 
09:30	75.8	75.8	77.6	37	47.7	1	4	248	0.00	30.026 
09:35	76.0	76.0	77.7	37	47.8	1	3	248	0.00	30.026 
09:40	76.1	76.1	77.6	35	46.4	1	3	248	0.00	30.026 
09:45	76.5	76.5	77.8	35	46.8	0	3	248	0.00	30.028 
09:50	77.4	77.4	78.1	35	47.6	0	2	248	0.00	30.028 
09:55	77.6	77.6	78.1	33	46.2	2	4	248	0.00	30.028 
10:00	77.7	77.7	78.2	33	46.3	1	3	248	0.00	30.025 
10:05	78.1	78.1	78.4	34	47.4	1	3	248	0.00	30.025 
10:10	78.5	78.5	78.6	33	47.0	1	4	248	0.00	30.025 
10:15	78.5	78.5	78.5	32	46.2	1	3	248	0.00	30.022 
10:20	78.5	78.5	78.6	33	47.0	2	4	248	0.00	30.022 
10:25	78.5	78.5	78.5	32	46.2	2	4	270	0.00	30.022 
10:30	78.6	78.6	78.5	32	46.3	2	5	270	0.00	30.017 
10:35	78.8	78.8	78.6	31	45.6	2	5	270	0.00	30.017 
10:40	78.5	78.5	78.5	32	46.2	3	6	270	0.00	30.017 
10:45	78.6	78.6	78.5	32	46.3	2	5	270	0.00	30.016 
10:50	78.8	78.8	78.6	31	45.6	3	5	270	0.00	30.016 
10:55	79.0	79.0	78.7	31	45.8	3	5	270	0.00	30.016 
11:00	79.2	79.2	78.7	29	44.2	2	6	270	0.00	30.011 
11:05	79.8	79.8	79.3	33	48.1	1	3	270	0.00	30.011 
11:10	80.5	80.5	79.5	30	46.2	2	4	270	0.00	30.011 
11:15	81.2	81.2	79.8	28	45.0	2	5	270	0.00	30.002 
11:20	81.8	81.8	80.2	28	45.5	1	3	248	0.00	30.002 
11:25	82.0	82.0	80.3	27	44.7	2	5	270	0.00	30.002 
11:30	81.8	81.8	80.2	28	45.5	1	4	248	0.00	29.999 
11:35	82.4	82.4	80.5	27	45.0	2	4	248	0.00	29.999 
11:40	82.8	82.8	80.8	27	45.4	2	6	248	0.00	29.999 
11:45	83.0	83.0	81.0	27	45.5	1	5	68	0.00	29.998 
11:50	82.8	82.8	80.8	26	44.4	2	6	270	0.00	29.998 
11:55	83.0	83.0	81.0	27	45.5	1	3	248	0.00	29.998 
12:00	83.2	83.2	81.1	27	45.7	2	4	292	0.00	29.999 
12:05	83.4	83.4	81.1	25	43.9	2	5	270	0.00	29.999 
12:10	83.2	83.2	81.0	25	43.7	3	6	270	0.00	29.999 
12:15	83.4	83.4	81.1	24	42.8	2	6	248	0.00	29.997 
12:20	83.4	83.4	81.1	25	43.9	2	4	270	0.00	29.997 
12:25	83.6	83.6	81.2	24	43.0	2	4	270	0.00	29.997 
12:30	84.0	84.0	81.6	25	44.4	1	3	270	0.00	29.992 
12:35	84.5	84.5	81.8	23	42.6	2	5	270	0.00	29.992 
12:40	84.7	84.7	82.0	23	42.8	1	4	270	0.00	29.992 
12:45	84.9	84.9	82.3	25	45.1	1	4	270	0.00	29.984 
12:50	85.5	85.5	82.7	24	44.6	2	4	270	0.00	29.984 
12:55	85.5	85.5	82.7	24	44.6	2	5	270	0.00	29.984 
13:00	85.5	85.5	82.7	24	44.6	2	4	248	0.00	29.984 
13:05	85.9	85.9	83.0	24	44.9	1	3	338	0.00	29.984 
13:10	85.9	85.9	82.9	23	43.8	2	5	248	0.00	29.984 
13:15	85.5	85.5	82.6	23	43.4	3	6	248	0.00	29.978 
13:20	85.7	85.7	82.8	23	43.6	2	4	112	0.00	29.978 
13:25	85.9	85.9	82.9	23	43.8	1	4	225	0.00	29.978 
13:30	86.3	86.3	83.7	27	48.3	1	3	338	0.00	29.970 
13:35	86.5	86.5	83.4	23	44.3	2	9	248	0.00	29.970 
13:40	86.7	86.7	83.5	22	43.3	1	4	248	0.00	29.970 
13:45	87.4	87.4	84.2	23	45.0	1	4	248	0.00	29.964 
13:50	87.4	87.4	84.3	24	46.1	1	5	248	0.00	29.964 
13:55	87.0	87.0	83.9	23	44.7	2	6	270	0.00	29.964 
14:00	86.7	86.7	83.7	24	45.6	2	5	248	0.00	29.954 
14:05	87.0	87.0	84.0	24	45.8	1	4	270	0.00	29.954 
14:10	87.6	87.6	84.4	23	45.2	2	6	270	0.00	29.954 
14:15	87.6	87.6	84.3	22	44.0	2	5	270	0.00	29.951 
14:20	87.2	87.2	84.0	22	43.7	2	5	270	0.00	29.951 
14:25	87.2	87.2	84.1	23	44.9	1	4	270	0.00	29.951 
14:30	87.4	87.4	84.4	25	47.2	2	4	292	0.00	29.946 
14:35	87.4	87.4	84.3	24	46.1	2	6	270	0.00	29.946 
14:40	87.6	87.6	84.3	22	44.0	2	4	270	0.00	29.946 
14:45	87.8	87.8	84.6	23	45.4	2	4	248	0.00	29.946 
14:50	88.0	88.0	84.9	24	46.6	1	4	248	0.00	29.946 
14:55	88.4	88.4	85.1	23	45.9	1	4	248	0.00	29.946 
15:00	88.8	88.8	85.4	22	45.0	2	4	292	0.00	29.935 
15:05	88.8	88.8	85.4	22	45.0	1	5	270	0.00	29.935 
15:10	88.8	88.8	85.4	22	45.0	1	4	270	0.00	29.935 
15:15	89.0	89.0	85.5	21	44.0	1	5	248	0.00	29.924 
15:20	89.5	89.5	86.1	22	45.6	1	4	45	0.00	29.924 
15:25	89.9	89.9	86.5	22	45.9	1	5	248	0.00	29.924 
15:30	89.9	89.9	86.2	20	43.4	2	5	248	0.00	29.922 
15:35	89.5	89.5	86.2	23	46.8	2	5	270	0.00	29.922 
15:40	89.9	89.9	86.5	22	45.9	1	3	225	0.00	29.922 
15:45	90.3	90.3	86.7	21	45.0	1	5	112	0.00	29.920 
15:50	90.7	90.7	87.0	20	44.1	1	5	270	0.00	29.920 
15:55	90.1	90.1	86.4	20	43.6	2	5	270	0.00	29.920 
16:00	89.9	89.9	86.1	19	42.1	2	6	270	0.00	29.917 
16:05	89.9	89.9	86.1	19	42.1	2	5	315	0.00	29.917 
16:10	90.1	90.1	86.3	19	42.2	1	4	0	0.00	29.917 
16:15	90.3	90.3	86.4	17	39.5	1	5	225	0.00	29.907 
16:20	90.7	90.7	86.9	19	42.7	1	3	225	0.00	29.907 
16:25	91.2	91.2	87.4	19	43.1	1	4	338	0.00	29.907 
16:30	91.2	91.2	87.4	19	43.1	2	4	45	0.00	29.906 
16:35	90.5	90.5	86.6	18	41.2	2	4	270	0.00	29.906 
16:40	90.5	90.5	86.6	18	41.2	1	4	248	0.00	29.906 
16:45	90.7	90.7	86.8	18	41.3	1	3	270	0.00	29.902 
16:50	90.7	90.7	86.9	19	42.7	2	4	248	0.00	29.902 
16:55	90.5	90.5	86.6	18	41.2	2	5	270	0.00	29.902 
17:00	90.3	90.3	86.5	19	42.4	1	3	270	0.00	29.896 
17:05	90.5	90.5	86.7	19	42.6	1	4	270	0.00	29.896 
17:10	90.7	90.7	86.8	18	41.3	2	5	270	0.00	29.896 
17:15	90.5	90.5	86.7	19	42.6	1	5	270	0.00	29.890 
17:20	90.5	90.5	86.7	19	42.6	1	5	90	0.00	29.890 
17:25	90.3	90.3	86.5	19	42.4	2	4	248	0.00	29.890 
17:30	90.3	90.3	86.4	18	41.0	1	3	248	0.00	29.885 
17:35	90.3	90.3	86.4	17	39.5	2	5	248	0.00	29.885 
17:40	90.1	90.1	86.2	17	39.4	1	4	292	0.00	29.885 
17:45	90.3	90.3	86.4	18	41.0	1	3	270	0.00	29.876 
17:50	90.1	90.1	86.2	18	40.8	2	4	270	0.00	29.876 
17:55	89.7	89.7	85.9	18	40.5	2	5	270	0.00	29.876 
18:00	89.5	89.5	85.8	19	41.8	1	3	248	0.00	29.869 
18:05	89.5	89.5	85.8	19	41.8	1	3	248	0.00	29.869 
18:10	89.3	89.3	85.5	18	40.2	1	3	248	0.00	29.869 
18:15	89.3	89.3	85.6	19	41.6	1	3	248	0.00	29.863 
18:20	89.3	89.3	85.6	19	41.6	1	5	248	0.00	29.863 
18:25	89.3	89.3	85.6	19	41.6	1	5	270	0.00	29.863 
18:30	88.8	88.8	85.2	20	42.5	2	7	270	0.00	29.862 
18:35	88.6	88.6	85.0	20	42.4	1	3	270	0.00	29.862 
18:40	88.6	88.6	85.0	20	42.4	1	3	270	0.00	29.862 
18:45	88.4	88.4	84.9	20	42.2	1	4	270	0.00	29.858 
18:50	88.2	88.2	84.8	21	43.3	1	2	315	0.00	29.858 
18:55	88.2	88.2	84.7	20	42.0	2	5	270	0.00	29.858 
19:00	88.2	88.2	84.7	20	42.0	1	5	270	0.00	29.853 
19:05	88.2	88.2	84.9	22	44.5	1	3	270	0.00	29.853 
19:10	88.0	88.0	84.5	20	41.9	1	5	270	0.00	29.853 
19:15	87.8	87.8	84.3	20	41.7	1	3	248	0.00	29.837 
19:20	87.8	87.8	84.4	21	43.0	2	5	248	0.00	29.837 
19:25	87.8	87.8	84.4	21	43.0	1	5	270	0.00	29.837 
19:30	87.6	87.6	84.3	22	44.0	1	4	315	0.00	29.835 
19:35	87.2	87.2	84.0	22	43.7	1	5	270	0.00	29.835 
19:40	87.2	87.2	84.0	22	43.7	1	4	248	0.00	29.835 
19:45	87.0	87.0	83.8	22	43.5	1	4	248	0.00	29.838 
19:50	87.0	87.0	83.8	22	43.5	1	3	270	0.00	29.838 
19:55	86.7	86.7	83.5	22	43.3	1	4	270	0.00	29.838 
20:00	86.5	86.5	83.4	23	44.3	1	4	270	0.00	29.834 
20:05	86.3	86.3	83.3	23	44.1	1	3	292	0.00	29.834 
20:10	86.3	86.3	83.3	23	44.1	1	4	270	0.00	29.834 
20:15	85.9	85.9	83.0	24	44.9	1	2	270	0.00	29.829 
20:20	85.7	85.7	82.9	24	44.7	0	2	270	0.00	29.829 
20:25	85.7	85.7	82.9	24	44.7	0	2	270	0.00	29.829 
20:30	85.5	85.5	82.8	25	45.6	1	3	270	0.00	29.832 
20:35	85.3	85.3	82.6	25	45.5	0	2	270	0.00	29.832 
20:40	85.1	85.1	82.4	25	45.3	1	2	270	0.00	29.832 
20:45	84.9	84.9	82.3	25	45.1	0	2	270	0.00	29.831 
20:50	84.5	84.5	82.0	26	45.8	0	2	270	0.00	29.831 
20:55	84.1	84.1	81.8	27	46.5	0	1	270	0.00	29.831 
21:00	83.8	83.8	81.6	27	46.2	0	1	270	0.00	29.833 
21:05	83.2	83.2	81.2	28	46.7	0	0	---	0.00	29.833 
21:10	82.8	82.8	80.8	27	45.4	0	1	270	0.00	29.833 
21:15	82.2	82.2	80.5	28	45.8	0	0	---	0.00	29.829 
21:20	81.8	81.8	80.3	29	46.4	0	1	270	0.00	29.829 
21:25	81.4	81.4	80.0	29	46.1	0	1	270	0.00	29.829 
21:30	81.1	81.1	79.9	30	46.7	0	0	---	0.00	29.827 
21:35	80.7	80.7	79.7	31	47.2	0	0	---	0.00	29.827 
21:40	80.3	80.3	79.4	31	46.9	0	0	---	0.00	29.827 
21:45	79.9	79.9	79.2	31	46.5	0	0	---	0.00	29.828 
21:50	79.8	79.8	79.2	32	47.3	0	0	---	0.00	29.828 
21:55	79.4	79.4	79.0	33	47.8	0	0	---	0.00	29.828 
22:00	79.0	79.0	78.9	34	48.2	0	0	---	0.00	29.831 
22:05	78.6	78.6	78.7	34	47.9	0	0	---	0.00	29.831 
22:10	78.3	78.3	78.6	35	48.4	0	0	---	0.00	29.831 
22:15	78.1	78.1	78.5	36	48.9	0	1	270	0.00	29.834 
22:20	77.9	77.9	78.4	36	48.8	0	1	270	0.00	29.834 
22:25	77.7	77.7	78.3	36	48.6	0	1	270	0.00	29.834 
22:30	77.7	77.7	78.3	36	48.6	0	0	---	0.00	29.834 
22:35	77.4	77.4	78.3	37	49.1	0	0	---	0.00	29.834 
22:40	77.2	77.2	78.2	37	48.9	0	0	---	0.00	29.834 
22:45	77.0	77.0	78.1	38	49.4	0	0	---	0.00	29.837 
22:50	76.7	76.7	78.0	38	49.2	0	0	---	0.00	29.837 
22:55	76.5	76.5	78.0	39	49.7	0	0	---	0.00	29.837 
23:00	76.3	76.3	77.9	39	49.5	0	0	---	0.00	29.840 
23:05	76.1	76.1	77.8	39	49.3	0	0	---	0.00	29.840 
23:10	76.0	76.0	77.8	39	49.2	0	1	270	0.00	29.840 
23:15	76.0	76.0	77.8	39	49.2	0	0	---	0.00	29.838 
23:20	75.8	75.8	77.7	40	49.7	0	0	---	0.00	29.838 
23:25	75.6	75.6	77.7	40	49.6	0	1	270	0.00	29.838 
23:30	75.4	75.4	77.6	41	50.0	0	0	---	0.00	29.837 
23:35	75.3	75.3	77.6	41	50.0	0	0	---	0.00	29.837 
23:40	75.1	75.1	77.6	41	49.8	0	0	---	0.00	29.837 
23:45	74.7	74.7	74.7	42	50.1	0	0	---	0.00	29.838 
23:50	74.6	74.6	74.6	42	50.0	0	0	---	0.00	29.838 
23:55	74.6	74.6	74.6	42	50.0	0	1	270	0.00	29.838 

CoCoRaHS
IN-AL-39
A2 Web Hosting
Creative Commons License
GoDaddy
search engine by freefind advanced

loaded 2018-11-13 17:13:01 • last modified 2010-11-18 10:43:29
Privacy PolicyDisclaimer
• wx.awcolley.com is powered by PmWiki v.2002016 •
• all content (unless otherwise noted) © 2018 A W Colley